Terminal Aerodrome Forecast
Issued by NWS Portland, OR

Home | Current Version | Previous Version | Text Only | Print | Product List | Glossary On
Versions: 1 2 3 4 5 6 7 8 9 10 11 12 13 14 15 16 17 18 19 20 21 22 23 24 25 26 27 28 29 30 31 32 33 34 35 36
000
FTUS46 KPQR 230913 AAA
TAFTTD
TAF AMD
KTTD 230913Z 2309/2406 VRB03KT P6SM SCT035 BKN045
      TEMPO 2311/2313 1/2SM FG
     FM231300 00000KT 1/4SM FG OVC002
     FM231800 00000KT 4SM BR BKN003 BKN050
     FM232000 VRB03KT P6SM VCSH SCT010 SCT040=

USA.gov is the U.S. government's official web portal to all federal, state and local government web resources and services.